Time;durP1;ratioP1;P1;durP2;ratioP2;P2;SDS_P1;SDS_P2;PMS_P1;PMS_P2;Temp;Humidity;BMP_temperature;BMP_pressure;BME280_temperature;BME280_humidity;BME280_pressure;Samples;Min_cycle;Max_cycle;Signal;HPM_P1;HPM_P2
2022/01/02 00:01:03;;;;;;;10.50;6.80;;;;;;;9.96;86.27;101058.44;5019430;28;20232;-81
2022/01/02 00:03:35;;;;;;;8.70;7.47;;;;;;;9.94;86.22;101052.34;5021337;28;20211;-82
2022/01/02 00:06:03;;;;;;;8.53;6.43;;;;;;;9.93;85.91;101063.94;5019986;28;20597;-82
2022/01/02 00:08:32;;;;;;;9.13;6.63;;;;;;;9.91;86.37;101065.81;5022423;28;20208;-83
2022/01/02 00:11:00;;;;;;;11.07;6.73;;;;;;;9.90;86.10;101034.84;5021246;28;20293;-82
2022/01/02 00:13:33;;;;;;;8.13;6.13;;;;;;;9.92;86.03;101032.94;5020522;28;20468;-82
2022/01/02 00:16:04;;;;;;;9.63;6.07;;;;;;;9.92;85.95;101028.50;5021266;28;20343;-82
2022/01/02 00:18:34;;;;;;;9.30;6.50;;;;;;;9.93;86.30;101022.22;5021591;28;20219;-82
2022/01/02 00:21:02;;;;;;;9.67;6.83;;;;;;;9.93;86.13;101011.59;5021788;28;20218;-82
2022/01/02 00:23:33;;;;;;;8.47;5.43;;;;;;;9.94;86.41;100993.81;5021626;28;20307;-82
2022/01/02 00:26:05;;;;;;;8.63;5.67;;;;;;;9.93;86.21;100984.97;5021727;28;20223;-83
2022/01/02 00:28:32;;;;;;;8.93;6.43;;;;;;;9.93;86.45;100994.75;5022020;28;20630;-81
2022/01/02 00:31:00;;;;;;;8.23;5.13;;;;;;;9.93;86.42;100982.31;5021802;28;20221;-81
2022/01/02 00:33:26;;;;;;;8.13;4.63;;;;;;;9.92;86.42;100977.94;5021381;28;20213;-82
2022/01/02 00:35:53;;;;;;;6.37;5.03;;;;;;;9.94;86.12;100992.00;5019011;28;20309;-82
2022/01/02 00:38:22;;;;;;;8.77;5.77;;;;;;;9.94;86.42;100984.03;5016820;28;20203;-82
2022/01/02 00:40:50;;;;;;;6.53;4.40;;;;;;;9.94;86.53;100988.50;5016699;28;20230;-82
2022/01/02 00:43:25;;;;;;;8.07;4.70;;;;;;;9.99;86.11;100979.31;5020009;28;20214;-82
2022/01/02 00:45:53;;;;;;;6.70;4.83;;;;;;;10.02;86.08;100971.19;5018889;28;20637;-82
2022/01/02 00:48:26;;;;;;;8.07;4.37;;;;;;;10.05;85.96;100965.66;5019394;28;20585;-82
2022/01/02 00:50:56;;;;;;;7.43;4.00;;;;;;;10.07;86.08;100977.06;5017691;28;20204;-82
2022/01/02 00:53:26;;;;;;;6.43;4.13;;;;;;;10.12;85.47;100991.94;5018560;28;20211;-82
2022/01/02 00:55:57;;;;;;;6.17;3.80;;;;;;;10.14;85.78;100971.41;5017995;28;20221;-83
2022/01/02 00:58:35;;;;;;;6.37;4.50;;;;;;;10.16;85.37;100988.16;5018135;28;20224;-82
2022/01/02 01:01:06;;;;;;;5.63;3.57;;;;;;;10.19;85.16;100994.22;5017403;28;20229;-82
2022/01/02 01:03:33;;;;;;;6.83;4.43;;;;;;;10.20;85.14;100990.59;5018077;28;20199;-82
2022/01/02 01:06:04;;;;;;;6.83;4.63;;;;;;;10.21;85.18;100986.97;5014919;28;20793;-83
2022/01/02 01:08:32;;;;;;;5.50;3.90;;;;;;;10.23;84.87;100979.75;5018339;28;20899;-83
2022/01/02 01:11:00;;;;;;;4.30;3.63;;;;;;;10.25;84.87;100969.03;5016939;28;20286;-82
2022/01/02 01:13:27;;;;;;;6.47;4.43;;;;;;;10.26;84.69;100966.28;5019201;28;20597;-82
2022/01/02 01:15:54;;;;;;;5.67;3.70;;;;;;;10.27;84.61;100969.81;5020085;28;21567;-82
2022/01/02 01:18:22;;;;;;;5.70;4.20;;;;;;;10.29;84.44;100967.91;5017979;28;20215;-82
2022/01/02 01:20:50;;;;;;;7.43;4.53;;;;;;;10.31;84.20;100971.34;5018026;28;20224;-82
2022/01/02 01:23:17;;;;;;;7.00;3.97;;;;;;;10.31;84.15;100960.72;5017377;28;20207;-82
2022/01/02 01:25:46;;;;;;;4.83;3.63;;;;;;;10.34;83.92;100963.19;5014364;28;20301;-82
2022/01/02 01:28:14;;;;;;;9.10;4.43;;;;;;;10.35;83.93;100964.91;5018121;28;20669;-82
2022/01/02 01:30:45;;;;;;;4.77;3.70;;;;;;;10.36;83.93;100969.28;5020790;28;20200;-83
2022/01/02 01:33:12;;;;;;;4.80;3.50;;;;;;;10.37;83.75;100961.22;5017062;28;20290;-82
2022/01/02 01:35:40;;;;;;;5.07;3.60;;;;;;;10.38;83.68;100957.63;5019306;28;20330;-82
2022/01/02 01:38:06;;;;;;;4.27;3.67;;;;;;;10.39;83.62;100938.00;5019061;28;20216;-82
2022/01/02 01:40:39;;;;;;;5.13;3.37;;;;;;;10.40;83.65;100931.72;5019355;28;20219;-83
2022/01/02 01:43:05;;;;;;;5.20;3.23;;;;;;;10.41;83.61;100935.25;5043154;22;20243;-71
2022/01/02 01:45:32;;;;;;;4.43;3.20;;;;;;;10.41;83.44;100938.78;5050128;28;20297;-70
2022/01/02 01:48:02;;;;;;;4.23;3.40;;;;;;;10.44;83.31;100943.94;5041520;28;20236;-68
2022/01/02 01:50:32;;;;;;;5.30;3.20;;;;;;;10.48;83.54;100946.41;5047910;28;20202;-70
2022/01/02 01:52:59;;;;;;;5.47;3.30;;;;;;;10.49;83.51;100937.47;5051249;28;20232;-70
2022/01/02 01:55:25;;;;;;;5.63;3.93;;;;;;;10.52;83.20;100937.31;5047582;28;20204;-68
2022/01/02 01:57:53;;;;;;;4.70;3.10;;;;;;;10.55;83.23;100910.50;5044663;28;20244;-71
2022/01/02 02:00:22;;;;;;;6.10;3.50;;;;;;;10.56;83.22;100906.91;5045279;28;20236;-70
2022/01/02 02:02:49;;;;;;;6.30;3.30;;;;;;;10.58;83.17;100923.63;5043117;28;20212;-71
2022/01/02 02:05:17;;;;;;;5.40;4.00;;;;;;;10.58;82.88;100931.59;5047211;28;20202;-69
2022/01/02 02:07:45;;;;;;;4.97;2.77;;;;;;;10.60;83.12;100935.03;5046342;28;20309;-69
2022/01/02 02:10:16;;;;;;;4.17;2.93;;;;;;;10.64;83.14;100925.94;5049413;28;20201;-69
2022/01/02 02:12:45;;;;;;;5.47;3.13;;;;;;;10.64;82.99;100940.09;5043071;28;20206;-70
2022/01/02 02:15:14;;;;;;;5.43;3.50;;;;;;;10.65;82.84;100940.97;5047291;28;20281;-69
2022/01/02 02:17:43;;;;;;;4.73;3.40;;;;;;;10.65;82.77;100968.47;5038199;28;20258;-70
2022/01/02 02:20:16;;;;;;;3.97;3.00;;;;;;;10.66;82.86;100958.66;5038738;28;20218;-71
2022/01/02 02:22:45;;;;;;;4.57;3.20;;;;;;;10.68;82.70;100962.09;5049519;28;20662;-69
2022/01/02 02:25:14;;;;;;;6.97;3.83;;;;;;;10.70;82.71;100962.88;5046997;28;20220;-71
2022/01/02 02:27:41;;;;;;;4.43;2.90;;;;;;;10.71;82.54;100951.25;5047595;28;20232;-70
2022/01/02 02:30:08;;;;;;;6.70;3.30;;;;;;;10.71;82.40;100948.59;5045262;28;20284;-69
2022/01/02 02:32:35;;;;;;;4.67;3.40;;;;;;;10.70;82.39;100947.75;5048275;28;20212;-70
2022/01/02 02:35:01;;;;;;;5.50;3.83;;;;;;;10.70;82.31;100936.22;5048575;28;20202;-70
2022/01/02 02:37:30;;;;;;;5.60;4.03;;;;;;;10.71;82.44;100925.47;5043777;28;20226;-69
2022/01/02 02:39:57;;;;;;;5.47;4.00;;;;;;;10.75;82.25;100928.78;5043098;28;20870;-70
2022/01/02 02:42:32;;;;;;;5.97;4.00;;;;;;;10.74;82.44;100922.66;5050096;28;20212;-70
2022/01/02 02:48:58;;;;;;;5.97;4.03;;;;;;;10.76;82.38;100914.53;5045302;28;20587;-70
2022/01/02 02:50:44;;;;;;;6.07;4.50;;;;;;;10.75;82.59;100928.78;5042577;28;20259;-70
2022/01/02 02:53:12;;;;;;;7.03;4.73;;;;;;;10.74;82.47;100932.44;5038644;28;20212;-70
2022/01/02 02:55:44;;;;;;;6.43;4.93;;;;;;;10.73;82.78;100968.03;5036264;28;21449;-70
2022/01/02 02:58:38;;;;;;;6.70;4.70;;;;;;;10.74;83.09;100977.72;5049241;28;20860;-70
2022/01/02 03:00:58;;;;;;;8.20;5.30;;;;;;;10.76;82.80;100978.47;5043909;28;20739;-70
2022/01/02 03:03:25;;;;;;;6.90;5.27;;;;;;;10.75;82.70;100976.75;5063221;22;20204;-70
2022/01/02 03:05:52;;;;;;;8.20;5.63;;;;;;;10.74;82.81;100970.59;5029299;28;20210;-71
2022/01/02 03:08:19;;;;;;;9.10;5.30;;;;;;;10.75;82.90;100963.44;5032781;28;20216;-70
2022/01/02 03:10:46;;;;;;;8.33;6.20;;;;;;;10.74;82.77;100953.75;5028662;28;20206;-71
2022/01/02 03:13:13;;;;;;;7.17;5.87;;;;;;;10.73;82.98;100949.38;5029549;28;20791;-71
2022/01/02 03:15:39;;;;;;;8.23;5.53;;;;;;;10.72;82.76;100942.31;5016331;28;20203;-71
2022/01/02 03:18:06;;;;;;;8.47;5.53;;;;;;;10.71;83.08;100940.59;5018408;28;20217;-71
2022/01/02 03:20:33;;;;;;;7.23;5.20;;;;;;;10.69;82.90;100931.84;5027394;28;20771;-70
2022/01/02 03:22:59;;;;;;;7.27;5.77;;;;;;;10.68;83.02;100930.13;5022078;28;20206;-71
2022/01/02 03:25:27;;;;;;;7.57;5.40;;;;;;;10.67;82.90;100923.09;5025815;28;20250;-71
2022/01/02 03:27:54;;;;;;;7.80;5.60;;;;;;;10.66;83.04;100906.25;5027892;28;20685;-71
2022/01/02 03:30:20;;;;;;;7.67;5.93;;;;;;;10.65;83.00;100901.00;5031096;28;20208;-71
2022/01/02 03:32:47;;;;;;;6.03;4.53;;;;;;;10.67;82.92;100904.44;5032165;28;20206;-71
2022/01/02 03:35:13;;;;;;;5.70;4.43;;;;;;;10.67;82.81;100891.97;5026608;28;20227;-71
2022/01/02 03:37:40;;;;;;;7.83;5.13;;;;;;;10.69;82.78;100892.75;5032521;28;20204;-70
2022/01/02 03:40:09;;;;;;;6.50;5.40;;;;;;;10.70;82.98;100883.81;5015567;28;20231;-70
2022/01/02 03:42:38;;;;;;;7.60;4.77;;;;;;;10.72;82.90;100891.72;5032402;28;20207;-74
2022/01/02 03:45:06;;;;;;;6.47;5.20;;;;;;;10.72;82.89;100886.38;5032465;28;20229;-70
2022/01/02 03:47:33;;;;;;;6.93;5.17;;;;;;;10.72;82.80;100891.72;5021396;28;20209;-71
2022/01/02 03:49:59;;;;;;;8.07;5.37;;;;;;;10.74;82.84;100873.84;5026412;28;20586;-71
2022/01/02 03:52:26;;;;;;;7.10;4.80;;;;;;;10.78;82.64;100891.31;5021343;28;20301;-70
2022/01/02 03:54:54;;;;;;;4.83;4.03;;;;;;;10.83;82.46;100880.41;5016163;28;20602;-70
2022/01/02 03:57:21;;;;;;;6.10;4.80;;;;;;;10.83;82.43;100883.91;5029787;28;20215;-71
2022/01/02 03:59:49;;;;;;;5.87;4.87;;;;;;;10.89;82.03;100880.88;5028581;28;20228;-71
2022/01/02 04:02:15;;;;;;;7.80;5.40;;;;;;;10.93;81.74;100861.06;5021405;28;20231;-70
2022/01/02 04:04:42;;;;;;;6.37;4.90;;;;;;;10.95;81.59;100851.19;5020999;28;20712;-71
2022/01/02 04:07:08;;;;;;;8.07;5.40;;;;;;;10.96;81.62;100842.25;5024905;28;20207;-71
2022/01/02 04:09:35;;;;;;;5.60;4.30;;;;;;;10.99;81.50;100828.72;5029983;28;20546;-70
2022/01/02 04:12:01;;;;;;;8.60;5.07;;;;;;;10.99;81.29;100823.41;5031868;28;20203;-70
2022/01/02 04:14:28;;;;;;;6.53;4.73;;;;;;;11.04;80.96;100817.78;5021936;28;20237;-70
2022/01/02 04:16:56;;;;;;;6.03;5.00;;;;;;;11.04;80.97;100800.00;5027643;28;20210;-71
2022/01/02 04:19:22;;;;;;;6.03;4.73;;;;;;;11.07;80.67;100804.28;5027569;28;20211;-70
2022/01/02 04:21:49;;;;;;;6.17;4.57;;;;;;;11.11;80.51;100801.28;5026008;28;20239;-71
2022/01/02 04:24:15;;;;;;;8.07;4.63;;;;;;;11.13;80.18;100796.72;5026136;28;20223;-72
2022/01/02 04:26:42;;;;;;;5.03;3.83;;;;;;;11.11;80.30;100803.97;5022207;28;20211;-70
2022/01/02 04:29:09;;;;;;;8.37;4.90;;;;;;;11.13;80.19;100799.41;5013983;28;20212;-71
2022/01/02 04:31:36;;;;;;;5.60;4.40;;;;;;;11.14;79.98;100802.91;5031810;28;20203;-71
2022/01/02 04:34:04;;;;;;;5.30;4.00;;;;;;;11.15;80.23;100807.28;5023606;28;20369;-71
2022/01/02 04:36:31;;;;;;;6.57;3.83;;;;;;;11.16;80.08;100793.03;5018372;28;20231;-71
2022/01/02 04:38:57;;;;;;;5.83;4.47;;;;;;;11.18;79.94;100788.44;5015336;28;20214;-70
2022/01/02 04:41:24;;;;;;;10.10;5.10;;;;;;;11.19;79.90;100784.84;5026932;28;20227;-70
2022/01/02 04:43:50;;;;;;;7.67;4.40;;;;;;;11.22;79.74;100781.97;5030810;28;20891;-71
2022/01/02 04:46:17;;;;;;;7.90;4.87;;;;;;;11.25;79.58;100781.78;5024653;28;20206;-71
2022/01/02 04:48:43;;;;;;;6.43;4.57;;;;;;;11.26;79.60;100786.16;5028611;28;20210;-71
2022/01/02 04:51:11;;;;;;;7.83;4.53;;;;;;;11.25;79.58;100787.13;5023414;28;20207;-71
2022/01/02 04:53:46;;;;;;;6.90;4.40;;;;;;;11.25;79.32;100796.94;5022162;28;20220;-71
2022/01/02 04:56:13;;;;;;;6.77;4.20;;;;;;;11.24;79.52;100784.53;5025318;28;20580;-72
2022/01/02 04:58:39;;;;;;;6.50;4.13;;;;;;;11.26;79.46;100806.63;5025139;28;20219;-71
2022/01/02 05:01:07;;;;;;;5.93;3.90;;;;;;;11.24;79.35;100797.88;5019162;28;20237;-72
2022/01/02 05:03:34;;;;;;;12.90;5.10;;;;;;;11.23;79.50;100793.50;5022280;28;20239;-72
2022/01/02 05:06:01;;;;;;;6.67;4.20;;;;;;;11.24;79.22;100780.06;5022782;28;20838;-71
2022/01/02 05:08:28;;;;;;;7.23;4.70;;;;;;;11.23;79.81;100785.50;5028855;28;20623;-71
2022/01/02 05:10:55;;;;;;;6.20;4.30;;;;;;;11.25;79.35;100780.94;5017752;28;20209;-71
2022/01/02 05:13:22;;;;;;;6.53;4.40;;;;;;;11.25;79.52;100779.13;5029733;28;20675;-71
2022/01/02 05:15:48;;;;;;;6.90;4.67;;;;;;;11.28;79.55;100778.06;5024713;28;20198;-71
2022/01/02 05:18:15;;;;;;;7.80;4.10;;;;;;;11.30;79.69;100778.81;5030226;28;20200;-71
2022/01/02 05:20:44;;;;;;;6.87;4.60;;;;;;;11.31;79.59;100777.84;5021482;28;20233;-71
2022/01/02 05:23:10;;;;;;;6.23;3.83;;;;;;;11.32;79.57;100777.75;5016438;28;20234;-71
2022/01/02 05:25:38;;;;;;;6.33;4.03;;;;;;;11.34;79.77;100780.31;5025930;28;20215;-71
2022/01/02 05:28:05;;;;;;;6.73;4.40;;;;;;;11.33;79.73;100782.13;5027396;28;20705;-71
2022/01/02 05:30:32;;;;;;;9.10;4.73;;;;;;;11.33;79.64;100782.13;5019920;28;20646;-69
2022/01/02 05:32:58;;;;;;;7.43;4.87;;;;;;;11.31;79.87;100765.38;5020699;28;20676;-69
2022/01/02 05:35:25;;;;;;;4.93;3.63;;;;;;;11.31;79.93;100773.38;5019488;28;20233;-69
2022/01/02 05:37:51;;;;;;;7.77;4.17;;;;;;;11.33;79.90;100746.63;5020734;28;20761;-71
2022/01/02 05:40:18;;;;;;;6.63;3.97;;;;;;;11.35;80.00;100747.38;5013675;28;20218;-71
2022/01/02 05:42:46;;;;;;;4.90;3.40;;;;;;;11.35;80.09;100742.91;5021410;28;20243;-71
2022/01/02 05:45:12;;;;;;;8.57;3.90;;;;;;;11.39;80.11;100735.56;5024793;28;20606;-71
2022/01/02 05:47:39;;;;;;;7.90;3.90;;;;;;;11.37;80.29;100734.78;5027523;28;20211;-71
2022/01/02 05:50:06;;;;;;;7.10;4.10;;;;;;;11.40;80.61;100732.78;5022734;28;20238;-71
2022/01/02 05:52:33;;;;;;;6.80;3.50;;;;;;;11.41;80.69;100729.16;5016064;28;20204;-70
2022/01/02 05:54:59;;;;;;;5.23;3.13;;;;;;;11.44;80.56;100730.78;5026547;28;20248;-72
2022/01/02 05:57:26;;;;;;;10.23;3.50;;;;;;;11.47;80.78;100723.41;5028280;28;20200;-71
2022/01/02 05:59:54;;;;;;;4.87;2.93;;;;;;;11.51;80.81;100721.41;5029610;28;20212;-71
2022/01/02 06:02:20;;;;;;;7.13;3.17;;;;;;;11.54;80.92;100721.22;5022584;28;20239;-71
2022/01/02 06:04:47;;;;;;;8.33;3.77;;;;;;;11.55;81.02;100717.59;5022272;28;20256;-71
2022/01/02 06:07:15;;;;;;;6.37;3.10;;;;;;;11.57;80.76;100723.69;5020537;28;20210;-75
2022/01/02 06:09:41;;;;;;;6.10;3.13;;;;;;;11.59;80.98;100727.09;5027769;28;20343;-71
2022/01/02 06:12:08;;;;;;;7.77;3.10;;;;;;;11.60;81.10;100731.47;5027072;28;20203;-71
2022/01/02 06:14:35;;;;;;;6.77;3.00;;;;;;;11.63;81.27;100725.09;5028048;28;20723;-71
2022/01/02 06:17:03;;;;;;;5.33;2.40;;;;;;;11.66;81.07;100716.84;5015719;28;20205;-73
2022/01/02 06:19:29;;;;;;;6.93;2.93;;;;;;;11.71;80.98;100717.41;5025038;28;20211;-71
2022/01/02 06:21:56;;;;;;;7.57;2.97;;;;;;;11.72;81.00;100716.47;5023148;28;20232;-71
2022/01/02 06:24:22;;;;;;;5.63;3.40;;;;;;;11.73;80.84;100718.19;5021636;28;20229;-71
2022/01/02 06:26:49;;;;;;;6.87;3.00;;;;;;;11.74;80.83;100718.06;5024882;28;20213;-71
2022/01/02 06:29:15;;;;;;;6.20;3.20;;;;;;;11.75;80.79;100713.59;5024659;28;20212;-72
2022/01/02 06:31:42;;;;;;;4.93;3.60;;;;;;;11.73;80.69;100719.03;5024852;28;20213;-72
2022/01/02 06:34:10;;;;;;;5.47;3.43;;;;;;;11.74;81.04;100718.06;5026722;28;20231;-71
2022/01/02 06:36:36;;;;;;;4.90;2.83;;;;;;;11.78;80.95;100716.09;5024952;28;20207;-71
2022/01/02 06:39:03;;;;;;;5.63;3.07;;;;;;;11.78;81.07;100711.63;5021604;28;20562;-71
2022/01/02 06:41:30;;;;;;;5.80;2.83;;;;;;;11.79;81.29;100712.47;5015542;28;20268;-71
2022/01/02 06:43:56;;;;;;;9.77;3.60;;;;;;;11.77;81.41;100715.25;5025525;28;20230;-72
2022/01/02 06:46:23;;;;;;;8.13;2.90;;;;;;;11.78;81.84;100708.09;5021365;28;20218;-71
2022/01/02 06:48:50;;;;;;;6.50;2.87;;;;;;;11.75;82.02;100701.09;5029444;28;20214;-71
2022/01/02 06:51:18;;;;;;;5.77;3.10;;;;;;;11.79;82.18;100691.97;5019250;28;20284;-70
2022/01/02 06:53:44;;;;;;;5.97;3.27;;;;;;;11.80;82.01;100696.34;5026711;28;20914;-70
2022/01/02 06:56:11;;;;;;;5.87;3.10;;;;;;;11.82;82.18;100698.94;5020801;28;20218;-70
2022/01/02 06:58:38;;;;;;;5.93;2.67;;;;;;;11.80;82.27;100691.03;5019925;28;20214;-70
2022/01/02 07:01:05;;;;;;;5.27;3.10;;;;;;;11.78;82.43;100700.09;5024963;28;20207;-70
2022/01/02 07:03:33;;;;;;;7.80;3.23;;;;;;;11.75;82.39;100687.78;5020161;28;20241;-72
2022/01/02 07:05:59;;;;;;;4.50;2.90;;;;;;;11.77;82.68;100685.03;5022750;28;20215;-70
2022/01/02 07:08:27;;;;;;;5.70;3.20;;;;;;;11.76;82.76;100673.50;5023661;28;20214;-70
2022/01/02 07:10:55;;;;;;;5.80;2.97;;;;;;;11.77;82.51;100677.88;5017891;28;20478;-70
2022/01/02 07:13:21;;;;;;;6.93;3.73;;;;;;;11.76;82.74;100675.31;5024196;28;20600;-70
2022/01/02 07:15:48;;;;;;;8.90;3.37;;;;;;;11.74;82.60;100670.03;5024258;28;20873;-70
2022/01/02 07:18:15;;;;;;;7.87;2.87;;;;;;;11.75;82.58;100669.09;5023597;28;20218;-70
2022/01/02 07:20:41;;;;;;;7.83;3.30;;;;;;;11.79;82.82;100669.78;5019703;28;20211;-70
2022/01/02 07:23:08;;;;;;;5.50;2.83;;;;;;;11.79;82.89;100665.28;5025049;28;20225;-70
2022/01/02 07:25:36;;;;;;;5.43;3.00;;;;;;;11.79;83.03;100657.28;5025241;28;20225;-70
2022/01/02 07:28:02;;;;;;;7.63;3.43;;;;;;;11.80;83.12;100655.47;5026856;28;20221;-70
2022/01/02 07:30:29;;;;;;;6.27;3.17;;;;;;;11.84;82.99;100643.59;5023140;28;20600;-71
2022/01/02 07:33:01;;;;;;;6.13;2.83;;;;;;;11.84;83.04;100648.94;5025985;28;20220;-70
2022/01/02 07:35:28;;;;;;;6.03;2.70;;;;;;;11.86;83.06;100651.50;5014572;28;20231;-72
2022/01/02 07:37:54;;;;;;;5.83;3.17;;;;;;;11.91;83.13;100665.41;5014015;28;20210;-71
2022/01/02 07:40:21;;;;;;;6.20;2.60;;;;;;;11.90;82.77;100650.34;5009913;28;20206;-71
2022/01/02 07:42:49;;;;;;;4.10;2.53;;;;;;;11.90;83.33;100659.22;5022559;28;20229;-71
2022/01/02 07:45:16;;;;;;;6.70;2.70;;;;;;;11.92;83.36;100653.78;5025933;28;20238;-71
2022/01/02 07:47:43;;;;;;;7.33;2.87;;;;;;;11.93;83.19;100659.00;5022532;28;20213;-71
2022/01/02 07:50:10;;;;;;;6.80;2.70;;;;;;;11.95;83.63;100656.22;5023186;28;20209;-71
2022/01/02 07:52:36;;;;;;;6.53;3.00;;;;;;;11.95;83.30;100650.91;5019598;28;20710;-70
2022/01/02 07:55:04;;;;;;;7.10;2.40;;;;;;;12.00;83.50;100652.25;5020539;28;20222;-72
2022/01/02 07:57:31;;;;;;;6.40;2.57;;;;;;;12.05;83.25;100649.28;5016629;28;20577;-70
2022/01/02 07:59:59;;;;;;;8.77;3.07;;;;;;;12.08;83.38;100639.25;5022592;28;20210;-70
2022/01/02 08:02:25;;;;;;;9.17;3.47;;;;;;;12.09;83.39;100626.75;5021198;28;20234;-70
2022/01/02 08:04:52;;;;;;;6.63;2.90;;;;;;;12.15;83.17;100626.34;5016648;28;20235;-72
2022/01/02 08:07:18;;;;;;;5.73;2.90;;;;;;;12.14;83.12;100619.28;5021538;28;20207;-71
2022/01/02 08:09:45;;;;;;;4.57;2.73;;;;;;;12.15;83.01;100604.97;5027236;28;20202;-70
2022/01/02 08:12:11;;;;;;;4.63;2.70;;;;;;;12.16;82.88;100599.53;5020927;28;20578;-70
2022/01/02 08:14:38;;;;;;;4.80;2.60;;;;;;;12.16;82.72;100588.88;5019805;28;20234;-70
2022/01/02 08:17:06;;;;;;;6.87;2.87;;;;;;;12.21;82.87;100595.66;5026573;28;20228;-71
2022/01/02 08:19:32;;;;;;;6.20;2.60;;;;;;;12.21;82.62;100593.00;5017231;28;20244;-70
2022/01/02 08:21:59;;;;;;;5.77;2.93;;;;;;;12.22;82.42;100594.69;5029888;28;20228;-70
2022/01/02 08:24:25;;;;;;;6.90;2.80;;;;;;;12.21;82.58;100596.53;5022939;28;20613;-71
2022/01/02 08:26:52;;;;;;;5.37;2.87;;;;;;;12.21;82.25;100593.84;5032092;28;20214;-71
2022/01/02 08:29:18;;;;;;;9.10;3.10;;;;;;;12.22;82.26;100584.88;5030370;28;20245;-71
2022/01/02 08:31:45;;;;;;;4.17;2.50;;;;;;;12.24;82.33;100588.28;5038355;28;20201;-70
2022/01/02 08:34:13;;;;;;;7.53;2.73;;;;;;;12.26;81.74;100577.50;5031472;28;20222;-70
2022/01/02 08:36:39;;;;;;;6.83;2.47;;;;;;;12.26;82.09;100575.69;5031721;28;20210;-71
2022/01/02 08:39:06;;;;;;;4.63;2.80;;;;;;;12.26;81.68;100575.69;5029259;28;20662;-72
2022/01/02 08:41:32;;;;;;;6.83;2.87;;;;;;;12.27;81.56;100564.06;5027811;28;20213;-71
2022/01/02 08:43:59;;;;;;;4.77;2.70;;;;;;;12.25;81.55;100552.63;5030939;28;20237;-71
2022/01/02 08:46:26;;;;;;;6.73;3.03;;;;;;;12.26;81.88;100548.13;5026326;28;20225;-71
2022/01/02 08:48:52;;;;;;;5.10;2.63;;;;;;;12.26;81.76;100543.66;5035957;28;20201;-70
2022/01/02 08:51:20;;;;;;;6.90;3.00;;;;;;;12.25;81.59;100531.25;5029504;28;20205;-72
2022/01/02 08:53:47;;;;;;;6.20;2.87;;;;;;;12.23;81.79;100506.50;5021082;28;20430;-71
2022/01/02 08:56:15;;;;;;;7.87;3.17;;;;;;;12.27;81.49;100485.75;5024142;28;20215;-72
2022/01/02 08:58:41;;;;;;;8.20;3.27;;;;;;;12.22;81.37;100478.06;5015662;28;20230;-71
2022/01/02 09:01:08;;;;;;;7.13;3.07;;;;;;;12.22;81.79;100485.22;5027607;28;20209;-70
2022/01/02 09:03:34;;;;;;;4.47;2.90;;;;;;;12.20;81.67;100479.16;5016910;28;20233;-70
2022/01/02 09:06:01;;;;;;;5.40;3.40;;;;;;;12.18;81.52;100475.75;5026231;28;20210;-70
2022/01/02 09:08:29;;;;;;;6.53;3.23;;;;;;;12.14;81.78;100478.66;5026384;28;20202;-71
2022/01/02 09:10:55;;;;;;;6.13;3.53;;;;;;;12.12;81.32;100485.91;5031881;28;20224;-70
2022/01/02 09:13:23;;;;;;;6.00;3.70;;;;;;;12.09;81.29;100478.13;5025400;28;20208;-70
2022/01/02 09:15:50;;;;;;;7.20;3.83;;;;;;;12.04;81.48;100474.06;5019396;28;20623;-71
2022/01/02 09:18:16;;;;;;;8.73;3.50;;;;;;;12.01;81.30;100458.28;5018679;28;20214;-71
2022/01/02 09:20:44;;;;;;;6.10;4.07;;;;;;;11.97;81.32;100464.81;5020630;28;20553;-71
2022/01/02 09:23:10;;;;;;;6.83;3.77;;;;;;;11.92;81.30;100467.81;5022492;28;20230;-72
2022/01/02 09:25:38;;;;;;;8.03;4.50;;;;;;;11.89;81.13;100464.50;5027619;28;20207;-71
2022/01/02 09:28:05;;;;;;;7.30;4.30;;;;;;;11.83;81.59;100463.97;5022626;28;20734;-70
2022/01/02 09:30:31;;;;;;;6.30;3.93;;;;;;;11.80;81.51;100458.03;5020269;28;20233;-71
2022/01/02 09:32:58;;;;;;;8.17;4.47;;;;;;;11.79;81.67;100462.50;5022634;28;20682;-70
2022/01/02 09:35:25;;;;;;;5.37;4.13;;;;;;;11.74;81.74;100463.75;5030641;28;20243;-70
2022/01/02 09:37:51;;;;;;;7.33;4.47;;;;;;;11.73;81.55;100478.91;5027781;28;20583;-71
2022/01/02 09:40:18;;;;;;;6.70;4.47;;;;;;;11.75;81.87;100471.66;5019601;28;20219;-72
2022/01/02 09:42:46;;;;;;;9.53;5.13;;;;;;;11.76;81.60;100480.53;5023366;28;20254;-71
2022/01/02 09:45:13;;;;;;;8.47;4.90;;;;;;;11.73;81.71;100478.91;5023608;28;20239;-71
2022/01/02 09:47:41;;;;;;;8.60;4.70;;;;;;;11.73;81.60;100476.25;5023334;28;20212;-70
2022/01/02 09:50:09;;;;;;;8.47;5.77;;;;;;;11.71;81.53;100480.81;5024164;28;20210;-70
2022/01/02 09:52:37;;;;;;;8.93;5.43;;;;;;;11.72;81.47;100474.53;5019429;28;20220;-71
2022/01/02 09:55:04;;;;;;;10.10;5.63;;;;;;;11.68;81.70;100478.38;5028831;28;20602;-70
2022/01/02 09:57:31;;;;;;;8.47;5.27;;;;;;;11.61;81.65;100455.78;5031608;28;20212;-73
2022/01/02 09:59:58;;;;;;;9.17;5.43;;;;;;;11.64;81.75;100431.56;5029148;28;20216;-71
2022/01/02 10:02:25;;;;;;;8.83;5.20;;;;;;;11.62;81.73;100414.81;5024739;28;20611;-70
2022/01/02 10:05:02;;;;;;;8.27;6.03;;;;;;;11.58;81.67;100423.13;5032691;28;20237;-72
2022/01/02 10:07:31;;;;;;;8.77;5.00;;;;;;;11.58;81.50;100391.97;5027458;28;20581;-71
2022/01/02 10:09:58;;;;;;;9.33;5.77;;;;;;;11.56;81.64;100377.88;5016063;28;20213;-70
2022/01/02 10:12:30;;;;;;;8.93;5.47;;;;;;;11.59;81.56;100367.00;5029724;28;20198;-71
2022/01/02 10:15:29;;;;;;;7.23;4.57;;;;;;;11.59;81.39;100374.16;5028109;28;20735;-70
2022/01/02 10:18:05;;;;;;;10.23;4.83;;;;;;;11.57;81.72;100382.25;4971322;28;20339;-70
2022/01/02 10:20:34;;;;;;;6.97;4.97;;;;;;;11.62;81.45;100365.94;5010126;28;20214;-70
2022/01/02 10:23:11;;;;;;;9.20;3.87;;;;;;;11.64;81.53;100358.69;5023357;28;20253;-71
2022/01/02 10:25:43;;;;;;;6.03;4.37;;;;;;;11.62;81.32;100350.78;5020117;28;20205;-70
2022/01/02 10:28:25;;;;;;;6.50;4.20;;;;;;;11.67;81.70;100350.44;5018997;28;20215;-70
2022/01/02 10:30:56;;;;;;;6.83;4.23;;;;;;;11.67;81.39;100342.44;5027999;28;20679;-71
2022/01/02 10:33:23;;;;;;;7.23;4.17;;;;;;;11.67;81.41;100332.59;5028391;28;20204;-70
2022/01/02 10:35:57;;;;;;;7.40;4.30;;;;;;;11.71;81.41;100326.09;5020493;28;20204;-70
2022/01/02 10:38:24;;;;;;;7.60;4.40;;;;;;;11.75;81.25;100324.06;5024964;28;20202;-71
2022/01/02 10:40:50;;;;;;;9.03;4.83;;;;;;;11.74;80.82;100314.34;5017724;28;20832;-70
2022/01/02 10:43:29;;;;;;;10.20;4.90;;;;;;;11.74;81.05;100301.88;5023359;28;20233;-70
2022/01/02 10:45:59;;;;;;;7.10;4.30;;;;;;;11.78;80.97;100298.03;5017709;28;20211;-71
2022/01/02 10:48:35;;;;;;;6.67;4.27;;;;;;;11.79;80.89;100286.41;5022664;28;20208;-70
2022/01/02 10:51:05;;;;;;;7.57;3.90;;;;;;;11.80;81.12;100280.13;5014314;28;20214;-70
2022/01/02 10:53:34;;;;;;;5.93;3.37;;;;;;;11.83;81.27;100282.53;5024686;28;20229;-70
2022/01/02 10:56:01;;;;;;;6.70;4.40;;;;;;;11.87;80.97;100274.28;5021739;28;20202;-70
2022/01/02 10:58:28;;;;;;;7.37;4.03;;;;;;;11.90;81.09;100279.41;5019244;28;20203;-71
2022/01/02 11:01:02;;;;;;;8.37;4.23;;;;;;;11.95;80.96;100266.59;5015901;28;20211;-71
2022/01/02 11:03:30;;;;;;;9.03;5.37;;;;;;;11.98;81.14;100253.00;5022764;28;20221;-70
2022/01/02 11:06:04;;;;;;;5.83;3.37;;;;;;;12.03;80.86;100242.81;5022647;28;20215;-70
2022/01/02 11:08:35;;;;;;;5.10;3.30;;;;;;;12.09;80.62;100239.69;5022819;28;20738;-70
2022/01/02 11:11:02;;;;;;;8.57;3.53;;;;;;;12.12;80.68;100236.81;5019837;28;20212;-71
2022/01/02 11:13:29;;;;;;;5.70;2.93;;;;;;;12.16;80.83;100209.75;5023446;28;20227;-70
2022/01/02 11:15:56;;;;;;;6.77;2.80;;;;;;;12.23;80.49;100207.44;5020045;28;20550;-71
2022/01/02 11:18:25;;;;;;;6.33;2.73;;;;;;;12.29;79.97;100195.44;5019381;28;20221;-71
2022/01/02 11:20:52;;;;;;;6.07;2.77;;;;;;;12.34;79.34;100203.97;5019111;28;20199;-73
2022/01/02 11:23:24;;;;;;;6.27;3.20;;;;;;;12.44;78.00;100183.56;5012961;28;20312;-71
2022/01/02 11:25:55;;;;;;;7.63;2.47;;;;;;;12.55;77.36;100164.00;5015642;28;20207;-70
2022/01/02 11:28:34;;;;;;;3.33;1.97;;;;;;;12.61;76.56;100168.88;5015681;28;20199;-70
2022/01/02 11:31:02;;;;;;;4.37;2.37;;;;;;;12.65;76.22;100165.84;5018543;28;20218;-70
2022/01/02 11:33:32;;;;;;;3.37;1.90;;;;;;;12.74;75.65;100169.59;5019082;28;20233;-70